sensor_id;sensor_type;location;lat;lon;timestamp;pressure;altitude;pressure_sealevel;temperature;humidity
4123;BME280;2075;51.062;6.920;2023-03-05T00:00:45;85814.09;;;-144.48;100.00
4123;BME280;2075;51.062;6.920;2023-03-05T00:03:30;86598.53;;;-144.48;100.00
4123;BME280;2075;51.062;6.920;2023-03-05T00:06:16;84715.81;;;-144.48;100.00
4123;BME280;2075;51.062;6.920;2023-03-05T00:09:02;83522.66;;;-144.48;100.00
4123;BME280;2075;51.062;6.920;2023-03-05T00:11:49;85248.72;;;-144.48;100.00
4123;BME280;2075;51.062;6.920;2023-03-05T00:14:34;85806.00;;;-144.48;100.00
4123;BME280;2075;51.062;6.920;2023-03-05T00:17:20;85947.88;;;-144.48;100.00
4123;BME280;2075;51.062;6.920;2023-03-05T00:20:06;84954.91;;;-144.48;100.00
4123;BME280;2075;51.062;6.920;2023-03-05T00:22:52;85654.00;;;-144.48;100.00
4123;BME280;2075;51.062;6.920;2023-03-05T00:25:37;87766.38;;;-144.48;100.00
4123;BME280;2075;51.062;6.920;2023-03-05T00:28:24;88466.06;;;-144.48;100.00
4123;BME280;2075;51.062;6.920;2023-03-05T00:31:10;89415.41;;;-144.48;100.00
4123;BME280;2075;51.062;6.920;2023-03-05T00:33:56;88942.72;;;-144.48;100.00
4123;BME280;2075;51.062;6.920;2023-03-05T00:36:45;89865.84;;;-144.48;100.00
4123;BME280;2075;51.062;6.920;2023-03-05T00:39:30;89758.28;;;-144.48;100.00
4123;BME280;2075;51.062;6.920;2023-03-05T00:42:15;89679.16;;;-144.48;100.00
4123;BME280;2075;51.062;6.920;2023-03-05T00:45:03;89906.41;;;-144.48;100.00
4123;BME280;2075;51.062;6.920;2023-03-05T00:47:49;88768.28;;;-144.48;100.00
4123;BME280;2075;51.062;6.920;2023-03-05T00:50:34;89074.59;;;-144.48;100.00
4123;BME280;2075;51.062;6.920;2023-03-05T00:53:19;88382.91;;;-144.48;100.00
4123;BME280;2075;51.062;6.920;2023-03-05T00:56:05;88013.78;;;-144.48;100.00
4123;BME280;2075;51.062;6.920;2023-03-05T00:58:50;87620.38;;;-144.48;100.00
4123;BME280;2075;51.062;6.920;2023-03-05T01:01:38;87810.97;;;-144.48;100.00
4123;BME280;2075;51.062;6.920;2023-03-05T01:04:23;87458.16;;;-144.48;100.00
4123;BME280;2075;51.062;6.920;2023-03-05T01:07:09;87881.97;;;-144.48;100.00
4123;BME280;2075;51.062;6.920;2023-03-05T01:09:55;87727.84;;;-144.48;100.00
4123;BME280;2075;51.062;6.920;2023-03-05T01:12:40;87721.75;;;-144.48;100.00
4123;BME280;2075;51.062;6.920;2023-03-05T01:15:26;87952.94;;;-144.48;100.00
4123;BME280;2075;51.062;6.920;2023-03-05T01:18:13;87689.31;;;-144.48;100.00
4123;BME280;2075;51.062;6.920;2023-03-05T01:20:59;86314.75;;;-144.48;100.00
4123;BME280;2075;51.062;6.920;2023-03-05T01:23:44;86180.97;;;-144.48;100.00
4123;BME280;2075;51.062;6.920;2023-03-05T01:26:30;85812.06;;;-144.48;100.00
4123;BME280;2075;51.062;6.920;2023-03-05T01:29:15;86373.53;;;-144.48;100.00
4123;BME280;2075;51.062;6.920;2023-03-05T01:32:00;86381.63;;;-144.48;100.00
4123;BME280;2075;51.062;6.920;2023-03-05T01:34:47;85273.03;;;-144.48;100.00
4123;BME280;2075;51.062;6.920;2023-03-05T01:37:33;84786.72;;;-144.48;100.00
4123;BME280;2075;51.062;6.920;2023-03-05T01:40:19;85064.31;;;-144.48;100.00
4123;BME280;2075;51.062;6.920;2023-03-05T01:43:21;85641.84;;;-144.48;100.00
4123;BME280;2075;51.062;6.920;2023-03-05T01:46:32;84628.69;;;-144.48;100.00
4123;BME280;2075;51.062;6.920;2023-03-05T01:49:23;83291.78;;;-144.48;100.00
4123;BME280;2075;51.062;6.920;2023-03-05T01:52:12;84124.25;;;-144.48;100.00
4123;BME280;2075;51.062;6.920;2023-03-05T01:55:03;84574.00;;;-144.48;100.00
4123;BME280;2075;51.062;6.920;2023-03-05T01:57:51;84563.84;;;-144.48;100.00
4123;BME280;2075;51.062;6.920;2023-03-05T02:00:42;83526.72;;;-144.48;100.00
4123;BME280;2075;51.062;6.920;2023-03-05T02:03:28;82921.19;;;-144.48;100.00
4123;BME280;2075;51.062;6.920;2023-03-05T02:06:13;81979.69;;;-144.48;100.00
4123;BME280;2075;51.062;6.920;2023-03-05T02:09:00;83316.09;;;-144.48;100.00
4123;BME280;2075;51.062;6.920;2023-03-05T02:11:45;84104.00;;;-144.48;100.00
4123;BME280;2075;51.062;6.920;2023-03-05T02:14:31;83674.56;;;-144.48;100.00
4123;BME280;2075;51.062;6.920;2023-03-05T02:17:17;84800.91;;;-144.48;100.00
4123;BME280;2075;51.062;6.920;2023-03-05T02:20:05;83976.38;;;-144.48;100.00
4123;BME280;2075;51.062;6.920;2023-03-05T02:22:52;84349.13;;;-144.48;100.00
4123;BME280;2075;51.062;6.920;2023-03-05T02:25:38;84031.06;;;-144.48;100.00
4123;BME280;2075;51.062;6.920;2023-03-05T02:28:27;84580.06;;;-144.48;100.00
4123;BME280;2075;51.062;6.920;2023-03-05T02:31:15;85431.09;;;-144.48;100.00
4123;BME280;2075;51.062;6.920;2023-03-05T02:34:01;84249.84;;;-144.48;100.00
4123;BME280;2075;51.062;6.920;2023-03-05T02:36:46;84738.09;;;-144.48;100.00
4123;BME280;2075;51.062;6.920;2023-03-05T02:39:35;83376.84;;;-144.48;100.00
4123;BME280;2075;51.062;6.920;2023-03-05T02:42:21;82283.38;;;-144.48;100.00
4123;BME280;2075;51.062;6.920;2023-03-05T02:45:07;81765.13;;;-144.48;100.00
4123;BME280;2075;51.062;6.920;2023-03-05T02:47:53;80113.66;;;-144.48;100.00
4123;BME280;2075;51.062;6.920;2023-03-05T02:50:39;79239.69;;;-144.48;100.00
4123;BME280;2075;51.062;6.920;2023-03-05T02:53:25;74586.28;;;-144.48;100.00
4123;BME280;2075;51.062;6.920;2023-03-05T02:56:11;73495.59;;;-144.48;100.00
4123;BME280;2075;51.062;6.920;2023-03-05T02:58:57;70832.97;;;-144.48;100.00
4123;BME280;2075;51.062;6.920;2023-03-05T03:01:42;70225.66;;;-144.48;100.00
4123;BME280;2075;51.062;6.920;2023-03-05T03:04:28;68934.69;;;-144.48;100.00
4123;BME280;2075;51.062;6.920;2023-03-05T03:07:14;66096.25;;;-144.48;100.00
4123;BME280;2075;51.062;6.920;2023-03-05T03:09:59;68160.31;;;-144.48;100.00
4123;BME280;2075;51.062;6.920;2023-03-05T03:12:46;67902.25;;;-144.48;100.00
4123;BME280;2075;51.062;6.920;2023-03-05T03:15:31;68418.44;;;-144.48;100.00
4123;BME280;2075;51.062;6.920;2023-03-05T03:18:16;69451.00;;;-144.48;100.00
4123;BME280;2075;51.062;6.920;2023-03-05T03:21:03;69192.84;;;-144.48;100.00
4123;BME280;2075;51.062;6.920;2023-03-05T03:23:48;70566.63;;;-144.48;100.00
4123;BME280;2075;51.062;6.920;2023-03-05T03:26:33;69967.41;;;-144.48;100.00
4123;BME280;2075;51.062;6.920;2023-03-05T03:29:20;71561.50;;;-144.48;100.00
4123;BME280;2075;51.062;6.920;2023-03-05T03:32:06;75952.13;;;-144.48;100.00
4123;BME280;2075;51.062;6.920;2023-03-05T03:34:52;82001.97;;;-144.48;100.00
4123;BME280;2075;51.062;6.920;2023-03-05T03:37:37;86006.66;;;-144.48;100.00
4123;BME280;2075;51.062;6.920;2023-03-05T03:40:23;86330.94;;;-144.48;100.00
4123;BME280;2075;51.062;6.920;2023-03-05T03:43:08;86318.78;;;-144.48;100.00
4123;BME280;2075;51.062;6.920;2023-03-05T03:45:55;87498.69;;;-144.48;100.00
4123;BME280;2075;51.062;6.920;2023-03-05T03:48:40;87129.69;;;-144.48;100.00
4123;BME280;2075;51.062;6.920;2023-03-05T03:51:26;86813.41;;;-144.48;100.00
4123;BME280;2075;51.062;6.920;2023-03-05T03:54:12;88311.91;;;-144.48;100.00
4123;BME280;2075;51.062;6.920;2023-03-05T03:56:57;88979.22;;;-144.48;100.00
4123;BME280;2075;51.062;6.920;2023-03-05T03:59:43;87936.72;;;-144.48;100.00
4123;BME280;2075;51.062;6.920;2023-03-05T04:02:30;87038.44;;;-144.48;100.00
4123;BME280;2075;51.062;6.920;2023-03-05T04:05:15;86464.75;;;-144.48;100.00
4123;BME280;2075;51.062;6.920;2023-03-05T04:08:01;85599.28;;;-144.48;100.00
4123;BME280;2075;51.062;6.920;2023-03-05T04:10:46;85386.50;;;-144.48;100.00
4123;BME280;2075;51.062;6.920;2023-03-05T04:13:32;84316.69;;;-144.48;100.00
4123;BME280;2075;51.062;6.920;2023-03-05T04:16:17;82795.66;;;-144.48;100.00
4123;BME280;2075;51.062;6.920;2023-03-05T04:19:04;77138.59;;;-144.48;100.00
4123;BME280;2075;51.062;6.920;2023-03-05T04:21:50;75857.16;;;-144.48;100.00
4123;BME280;2075;51.062;6.920;2023-03-05T04:24:35;75234.78;;;-144.48;100.00
4123;BME280;2075;51.062;6.920;2023-03-05T04:27:21;74527.69;;;-144.48;100.00
4123;BME280;2075;51.062;6.920;2023-03-05T04:30:09;75323.69;;;-144.48;100.00
4123;BME280;2075;51.062;6.920;2023-03-05T04:32:56;74709.50;;;-144.48;100.00
4123;BME280;2075;51.062;6.920;2023-03-05T04:35:43;75442.91;;;-144.48;100.00
4123;BME280;2075;51.062;6.920;2023-03-05T04:38:28;76940.50;;;-144.48;100.00
4123;BME280;2075;51.062;6.920;2023-03-05T04:41:13;77045.63;;;-144.48;100.00
4123;BME280;2075;51.062;6.920;2023-03-05T04:43:59;77795.69;;;-144.48;100.00
4123;BME280;2075;51.062;6.920;2023-03-05T04:46:44;78857.41;;;-144.48;100.00
4123;BME280;2075;51.062;6.920;2023-03-05T04:49:30;78335.59;;;-144.48;100.00
4123;BME280;2075;51.062;6.920;2023-03-05T04:52:16;72175.13;;;-144.48;100.00
4123;BME280;2075;51.062;6.920;2023-03-05T04:55:02;71178.06;;;-144.48;100.00
4123;BME280;2075;51.062;6.920;2023-03-05T04:57:47;68160.31;;;-144.48;100.00
4123;BME280;2075;51.062;6.920;2023-03-05T05:00:33;66870.13;;;-144.48;100.00
4123;BME280;2075;51.062;6.920;2023-03-05T05:03:19;65322.56;;;-144.48;100.00
4123;BME280;2075;51.062;6.920;2023-03-05T05:06:05;63775.66;;;-144.48;100.00
4123;BME280;2075;51.062;6.920;2023-03-05T05:08:52;63517.94;;;-144.48;100.00
4123;BME280;2075;51.062;6.920;2023-03-05T05:11:38;60169.00;;;-144.48;100.00
4123;BME280;2075;51.062;6.920;2023-03-05T05:14:23;59139.22;;;-144.48;100.00
4123;BME280;2075;51.062;6.920;2023-03-05T05:17:09;58109.78;;;-144.48;100.00
4123;BME280;2075;51.062;6.920;2023-03-05T05:19:54;57852.44;;;-144.48;100.00
4123;BME280;2075;51.062;6.920;2023-03-05T05:22:40;58624.47;;;-144.48;100.00
4123;BME280;2075;51.062;6.920;2023-03-05T05:25:27;56051.78;;;-144.48;100.00
4123;BME280;2075;51.062;6.920;2023-03-05T05:28:12;55537.47;;;-144.48;100.00
4123;BME280;2075;51.062;6.920;2023-03-05T05:30:58;56308.97;;;-144.48;100.00
4123;BME280;2075;51.062;6.920;2023-03-05T05:33:43;52710.22;;;-144.48;100.00
4123;BME280;2075;51.062;6.920;2023-03-05T05:36:29;52710.22;;;-144.48;100.00
4123;BME280;2075;51.062;6.920;2023-03-05T05:39:14;49115.28;;;-144.48;100.00
4123;BME280;2075;51.062;6.920;2023-03-05T05:42:01;49885.31;;;-144.48;100.00
4123;BME280;2075;51.062;6.920;2023-03-05T05:44:46;54509.13;;;-144.48;100.00
4123;BME280;2075;51.062;6.920;2023-03-05T05:47:32;58109.78;;;-144.48;100.00
4123;BME280;2075;51.062;6.920;2023-03-05T05:50:18;59396.66;;;-144.48;100.00
4123;BME280;2075;51.062;6.920;2023-03-05T05:53:03;60684.00;;;-144.48;100.00
4123;BME280;2075;51.062;6.920;2023-03-05T05:55:48;61971.84;;;-144.48;100.00
4123;BME280;2075;51.062;6.920;2023-03-05T05:58:36;60684.00;;;-144.48;100.00
4123;BME280;2075;51.062;6.920;2023-03-05T06:01:24;60169.00;;;-144.48;100.00
4123;BME280;2075;51.062;6.920;2023-03-05T06:04:10;61456.66;;;-144.48;100.00
4123;BME280;2075;51.062;6.920;2023-03-05T06:06:57;61456.66;;;-144.48;100.00
4123;BME280;2075;51.062;6.920;2023-03-05T06:09:43;64033.44;;;-144.48;100.00
4123;BME280;2075;51.062;6.920;2023-03-05T06:12:28;61199.09;;;-144.48;100.00
4123;BME280;2075;51.062;6.920;2023-03-05T06:15:15;61714.25;;;-144.48;100.00
4123;BME280;2075;51.062;6.920;2023-03-05T06:18:01;61971.84;;;-144.48;100.00
4123;BME280;2075;51.062;6.920;2023-03-05T06:20:53;69967.41;;;-144.48;100.00
4123;BME280;2075;51.062;6.920;2023-03-05T06:23:38;79306.44;;;-144.48;100.00
4123;BME280;2075;51.062;6.920;2023-03-05T06:26:24;83958.16;;;-144.48;100.00
4123;BME280;2075;51.062;6.920;2023-03-05T06:29:09;84118.19;;;-144.48;100.00
4123;BME280;2075;51.062;6.920;2023-03-05T06:31:56;84215.41;;;-144.48;100.00
4123;BME280;2075;51.062;6.920;2023-03-05T06:34:42;84480.78;;;-144.48;100.00
4123;BME280;2075;51.062;6.920;2023-03-05T06:37:27;87567.66;;;-144.48;100.00
4123;BME280;2075;51.062;6.920;2023-03-05T06:40:13;89100.94;;;-144.48;100.00
4123;BME280;2075;51.062;6.920;2023-03-05T06:42:58;93095.59;;;-144.48;100.00
4123;BME280;2075;51.062;6.920;2023-03-05T06:45:44;93648.06;;;-144.48;100.00
4123;BME280;2075;51.062;6.920;2023-03-05T06:48:31;94355.03;;;-144.48;100.00
4123;BME280;2075;51.062;6.920;2023-03-05T06:51:18;94483.03;;;-144.48;100.00
4123;BME280;2075;51.062;6.920;2023-03-05T06:54:06;94444.44;;;-144.48;100.00
4123;BME280;2075;51.062;6.920;2023-03-05T06:56:51;94365.19;;;-144.48;100.00
4123;BME280;2075;51.062;6.920;2023-03-05T06:59:37;94452.56;;;-144.48;100.00
4123;BME280;2075;51.062;6.920;2023-03-05T07:02:22;94379.41;;;-144.48;100.00
4123;BME280;2075;51.062;6.920;2023-03-05T07:05:09;94143.75;;;-144.48;100.00
4123;BME280;2075;51.062;6.920;2023-03-05T07:07:55;94066.53;;;-144.48;100.00
4123;BME280;2075;51.062;6.920;2023-03-05T07:10:41;94123.44;;;-144.48;100.00
4123;BME280;2075;51.062;6.920;2023-03-05T07:13:27;94196.56;;;-144.48;100.00
4123;BME280;2075;51.062;6.920;2023-03-05T07:16:15;94208.75;;;-144.48;100.00
4123;BME280;2075;51.062;6.920;2023-03-05T07:19:03;94265.63;;;-144.48;100.00
4123;BME280;2075;51.062;6.920;2023-03-05T07:21:50;94204.69;;;-144.48;100.00
4123;BME280;2075;51.062;6.920;2023-03-05T07:24:36;94253.44;;;-144.48;100.00
4123;BME280;2075;51.062;6.920;2023-03-05T07:27:22;94261.56;;;-144.48;100.00
4123;BME280;2075;51.062;6.920;2023-03-05T07:30:09;94279.84;;;-144.48;100.00
4123;BME280;2075;51.062;6.920;2023-03-05T07:32:55;94294.09;;;-144.48;100.00
4123;BME280;2075;51.062;6.920;2023-03-05T07:35:40;94688.25;;;-144.48;100.00
4123;BME280;2075;51.062;6.920;2023-03-05T07:38:27;94415.97;;;-144.48;100.00
4123;BME280;2075;51.062;6.920;2023-03-05T07:41:14;94253.44;;;-144.48;100.00
4123;BME280;2075;51.062;6.920;2023-03-05T07:44:02;94210.78;;;-144.48;100.00
4123;BME280;2075;51.062;6.920;2023-03-05T07:46:47;94198.59;;;-144.48;100.00
4123;BME280;2075;51.062;6.920;2023-03-05T07:49:33;94178.28;;;-144.48;100.00
4123;BME280;2075;51.062;6.920;2023-03-05T07:52:19;94229.06;;;-144.48;100.00
4123;BME280;2075;51.062;6.920;2023-03-05T07:55:06;94239.22;;;-144.48;100.00
4123;BME280;2075;51.062;6.920;2023-03-05T07:57:52;94330.66;;;-144.48;100.00
4123;BME280;2075;51.062;6.920;2023-03-05T08:00:38;94350.97;;;-144.48;100.00
4123;BME280;2075;51.062;6.920;2023-03-05T08:03:23;94326.59;;;-144.48;100.00
4123;BME280;2075;51.062;6.920;2023-03-05T08:06:10;94381.44;;;-144.48;100.00
4123;BME280;2075;51.062;6.920;2023-03-05T08:08:56;94328.63;;;-144.48;100.00
4123;BME280;2075;51.062;6.920;2023-03-05T08:11:43;94371.28;;;-144.48;100.00
4123;BME280;2075;51.062;6.920;2023-03-05T08:14:29;94318.47;;;-144.48;100.00
4123;BME280;2075;51.062;6.920;2023-03-05T08:17:14;94363.16;;;-144.48;100.00
4123;BME280;2075;51.062;6.920;2023-03-05T08:20:00;94314.41;;;-144.48;100.00
4123;BME280;2075;51.062;6.920;2023-03-05T08:22:48;94409.88;;;-144.48;100.00
4123;BME280;2075;51.062;6.920;2023-03-05T08:25:34;94432.25;;;-144.48;100.00
4123;BME280;2075;51.062;6.920;2023-03-05T08:28:21;94501.31;;;-144.48;100.00
4123;BME280;2075;51.062;6.920;2023-03-05T08:31:12;94552.13;;;-144.48;100.00
4123;BME280;2075;51.062;6.920;2023-03-05T08:33:58;94562.28;;;-144.48;100.00
4123;BME280;2075;51.062;6.920;2023-03-05T08:36:44;94570.41;;;-144.48;100.00
4123;BME280;2075;51.062;6.920;2023-03-05T08:39:29;94596.81;;;-144.48;99.09
4123;BME280;2075;51.062;6.920;2023-03-05T08:42:15;94621.19;;;-144.48;99.59
4123;BME280;2075;51.062;6.920;2023-03-05T08:45:02;94643.53;;;-144.48;100.00
4123;BME280;2075;51.062;6.920;2023-03-05T08:47:48;94582.59;;;-144.48;100.00
4123;BME280;2075;51.062;6.920;2023-03-05T08:50:34;94525.69;;;-144.48;100.00
4123;BME280;2075;51.062;6.920;2023-03-05T08:53:20;94562.28;;;-144.48;100.00
4123;BME280;2075;51.062;6.920;2023-03-05T08:56:06;94525.69;;;-144.48;100.00
4123;BME280;2075;51.062;6.920;2023-03-05T08:58:52;94523.66;;;-144.48;100.00
4123;BME280;2075;51.062;6.920;2023-03-05T09:01:38;94529.75;;;-144.48;100.00
4123;BME280;2075;51.062;6.920;2023-03-05T09:04:24;94582.59;;;-144.48;99.66
4123;BME280;2075;51.062;6.920;2023-03-05T09:07:09;94600.88;;;-144.48;98.48
4123;BME280;2075;51.062;6.920;2023-03-05T09:09:55;94617.13;;;-144.48;97.26
4123;BME280;2075;51.062;6.920;2023-03-05T09:12:41;94621.19;;;-144.48;95.73
4123;BME280;2075;51.062;6.920;2023-03-05T09:15:26;94574.47;;;-144.48;95.42
4123;BME280;2075;51.062;6.920;2023-03-05T09:18:13;94602.91;;;-144.48;95.36
4123;BME280;2075;51.062;6.920;2023-03-05T09:21:03;94430.22;;;-144.48;94.57
4123;BME280;2075;51.062;6.920;2023-03-05T09:23:49;94611.03;;;-144.48;94.26
4123;BME280;2075;51.062;6.920;2023-03-05T09:26:34;94627.28;;;-144.48;93.30
4123;BME280;2075;51.062;6.920;2023-03-05T09:29:19;94623.22;;;-144.48;92.64
4123;BME280;2075;51.062;6.920;2023-03-05T09:32:06;94663.88;;;-144.48;88.42
4123;BME280;2075;51.062;6.920;2023-03-05T09:34:53;94641.50;;;-144.48;87.86
4123;BME280;2075;51.062;6.920;2023-03-05T09:37:38;94606.97;;;-144.48;84.53
4123;BME280;2075;51.062;6.920;2023-03-05T09:40:24;94627.28;;;-144.48;84.50
4123;BME280;2075;51.062;6.920;2023-03-05T09:43:16;94651.66;;;-144.48;83.00
4123;BME280;2075;51.062;6.920;2023-03-05T09:46:19;94669.97;;;-144.48;83.61
4123;BME280;2075;51.062;6.920;2023-03-05T09:49:15;94663.88;;;-144.48;81.44
4123;BME280;2075;51.062;6.920;2023-03-05T09:52:06;94639.47;;;-144.48;81.75
4123;BME280;2075;51.062;6.920;2023-03-05T09:54:56;94649.63;;;-144.48;80.97
4123;BME280;2075;51.062;6.920;2023-03-05T09:57:44;94724.81;;;-144.48;85.19
4123;BME280;2075;51.062;6.920;2023-03-05T10:00:37;94706.53;;;-144.48;88.34
4123;BME280;2075;51.062;6.920;2023-03-05T10:03:27;94629.31;;;-144.48;98.72
4123;BME280;2075;51.062;6.920;2023-03-05T10:06:19;93839.00;;;-144.48;100.00
4123;BME280;2075;51.062;6.920;2023-03-05T10:09:13;93050.91;;;-144.48;100.00
4123;BME280;2075;51.062;6.920;2023-03-05T10:12:05;94003.56;;;-144.48;100.00
4123;BME280;2075;51.062;6.920;2023-03-05T10:14:51;94302.22;;;-144.48;100.00
4123;BME280;2075;51.062;6.920;2023-03-05T10:17:52;94369.25;;;-144.48;100.00
4123;BME280;2075;51.062;6.920;2023-03-05T10:20:54;94444.44;;;-144.48;97.79
4123;BME280;2075;51.062;6.920;2023-03-05T10:23:49;94387.53;;;-144.48;99.50
4123;BME280;2075;51.062;6.920;2023-03-05T10:26:48;94269.69;;;-144.48;100.00
4123;BME280;2075;51.062;6.920;2023-03-05T10:30:02;92449.81;;;-144.48;100.00
4123;BME280;2075;51.062;6.920;2023-03-05T10:32:52;87085.09;;;-144.48;100.00
4123;BME280;2075;51.062;6.920;2023-03-05T10:35:51;74121.69;;;-144.48;100.00
4123;BME280;2075;51.062;6.920;2023-03-05T10:39:08;64549.03;;;-144.48;100.00
4123;BME280;2075;51.062;6.920;2023-03-05T10:42:08;67386.16;;;-144.48;100.00
4123;BME280;2075;51.062;6.920;2023-03-05T10:44:57;74180.25;;;-144.48;100.00
4123;BME280;2075;51.062;6.920;2023-03-05T10:47:46;83810.28;;;-144.48;100.00
4123;BME280;2075;51.062;6.920;2023-03-05T10:50:35;90460.41;;;-144.48;100.00
4123;BME280;2075;51.062;6.920;2023-03-05T10:53:26;91643.75;;;-144.48;100.00
4123;BME280;2075;51.062;6.920;2023-03-05T10:56:14;92441.69;;;-144.48;100.00
4123;BME280;2075;51.062;6.920;2023-03-05T10:59:01;90833.84;;;-144.48;100.00
4123;BME280;2075;51.062;6.920;2023-03-05T11:02:01;83380.91;;;-144.48;100.00
4123;BME280;2075;51.062;6.920;2023-03-05T11:04:48;77870.50;;;-144.48;100.00
4123;BME280;2075;51.062;6.920;2023-03-05T11:07:36;62229.50;;;-144.48;100.00
4123;BME280;2075;51.062;6.920;2023-03-05T11:10:21;68418.44;;;-144.48;100.00
4123;BME280;2075;51.062;6.920;2023-03-05T11:13:22;75485.34;;;-144.48;100.00
4123;BME280;2075;51.062;6.920;2023-03-05T11:16:15;72677.81;;;-144.48;100.00
4123;BME280;2075;51.062;6.920;2023-03-05T11:19:20;75689.44;;;-144.48;100.00
4123;BME280;2075;51.062;6.920;2023-03-05T11:22:14;73152.31;;;-144.48;100.00
4123;BME280;2075;51.062;6.920;2023-03-05T11:25:12;78673.34;;;-144.48;100.00
4123;BME280;2075;51.062;6.920;2023-03-05T11:28:00;83830.53;;;-144.48;100.00
4123;BME280;2075;51.062;6.920;2023-03-05T11:30:54;87401.38;;;-144.48;100.00
4123;BME280;2075;51.062;6.920;2023-03-05T11:33:54;91499.63;;;-144.48;100.00
4123;BME280;2075;51.062;6.920;2023-03-05T11:36:42;93641.97;;;-144.48;100.00
4123;BME280;2075;51.062;6.920;2023-03-05T11:39:28;94074.66;;;-144.48;100.00
4123;BME280;2075;51.062;6.920;2023-03-05T11:42:18;94127.50;;;-144.48;100.00
4123;BME280;2075;51.062;6.920;2023-03-05T11:45:13;93942.63;;;-144.48;100.00
4123;BME280;2075;51.062;6.920;2023-03-05T11:48:05;93843.06;;;-144.48;100.00
4123;BME280;2075;51.062;6.920;2023-03-05T11:50:56;93085.44;;;-144.48;100.00
4123;BME280;2075;51.062;6.920;2023-03-05T11:53:44;93861.34;;;-144.48;100.00
4123;BME280;2075;51.062;6.920;2023-03-05T11:56:35;93857.28;;;-144.48;100.00
4123;BME280;2075;51.062;6.920;2023-03-05T11:59:27;94348.94;;;-144.48;98.61
4123;BME280;2075;51.062;6.920;2023-03-05T12:02:18;94704.50;;;-144.48;96.05
4123;BME280;2075;51.062;6.920;2023-03-05T12:05:05;94466.78;;;-144.48;94.50
4123;BME280;2075;51.062;6.920;2023-03-05T12:07:55;94505.38;;;-144.48;92.85
4123;BME280;2075;51.062;6.920;2023-03-05T12:10:42;94541.94;;;-144.48;91.94
4123;BME280;2075;51.062;6.920;2023-03-05T12:13:30;94576.50;;;-144.48;91.55
4123;BME280;2075;51.062;6.920;2023-03-05T12:16:26;94564.31;;;-144.48;92.09
4123;BME280;2075;51.062;6.920;2023-03-05T12:19:32;94606.97;;;-144.48;92.05
4123;BME280;2075;51.062;6.920;2023-03-05T12:22:23;94596.81;;;-144.48;92.56
4123;BME280;2075;51.062;6.920;2023-03-05T12:25:34;94533.81;;;-144.48;91.08
4123;BME280;2075;51.062;6.920;2023-03-05T12:28:52;94489.13;;;-144.48;92.13
4123;BME280;2075;51.062;6.920;2023-03-05T12:31:39;94489.13;;;-144.48;90.27
4123;BME280;2075;51.062;6.920;2023-03-05T12:34:35;94499.28;;;-144.48;86.30
4123;BME280;2075;51.062;6.920;2023-03-05T12:37:56;94554.16;;;-144.48;84.63
4123;BME280;2075;51.062;6.920;2023-03-05T12:40:43;94472.88;;;-144.48;84.71
4123;BME280;2075;51.062;6.920;2023-03-05T12:43:30;94550.09;;;-144.48;80.85
4123;BME280;2075;51.062;6.920;2023-03-05T12:46:24;94576.50;;;-144.48;81.12
4123;BME280;2075;51.062;6.920;2023-03-05T12:49:27;94586.66;;;-144.48;79.62
4123;BME280;2075;51.062;6.920;2023-03-05T12:52:21;94732.94;;;-144.48;80.22
4123;BME280;2075;51.062;6.920;2023-03-05T12:55:21;94566.34;;;-144.48;78.79
4123;BME280;2075;51.062;6.920;2023-03-05T12:58:12;94529.75;;;-144.48;77.70
4123;BME280;2075;51.062;6.920;2023-03-05T13:01:03;94517.56;;;-144.48;75.33
4123;BME280;2075;51.062;6.920;2023-03-05T13:03:53;94521.63;;;-144.48;75.90
4123;BME280;2075;51.062;6.920;2023-03-05T13:06:40;94617.13;;;-144.48;74.44
4123;BME280;2075;51.062;6.920;2023-03-05T13:09:27;94529.75;;;-144.48;75.50
4123;BME280;2075;51.062;6.920;2023-03-05T13:12:14;94472.88;;;-144.48;73.23
4123;BME280;2075;51.062;6.920;2023-03-05T13:15:03;94580.56;;;-144.48;71.24
4123;BME280;2075;51.062;6.920;2023-03-05T13:17:53;94562.28;;;-144.48;73.12
4123;BME280;2075;51.062;6.920;2023-03-05T13:20:40;94546.03;;;-144.48;75.12
4123;BME280;2075;51.062;6.920;2023-03-05T13:23:26;94554.16;;;-144.48;74.30
4123;BME280;2075;51.062;6.920;2023-03-05T13:26:13;94558.22;;;-144.48;73.25
4123;BME280;2075;51.062;6.920;2023-03-05T13:29:04;94519.59;;;-144.48;74.65
4123;BME280;2075;51.062;6.920;2023-03-05T13:31:54;94537.88;;;-144.48;71.95
4123;BME280;2075;51.062;6.920;2023-03-05T13:34:43;94515.53;;;-144.48;71.74
4123;BME280;2075;51.062;6.920;2023-03-05T13:37:32;94627.28;;;-144.48;71.00
4123;BME280;2075;51.062;6.920;2023-03-05T13:40:22;94611.03;;;-144.48;69.82
4123;BME280;2075;51.062;6.920;2023-03-05T13:43:09;94672.00;;;-144.48;70.15
4123;BME280;2075;51.062;6.920;2023-03-05T13:45:55;94582.59;;;-144.48;69.72
4123;BME280;2075;51.062;6.920;2023-03-05T13:48:42;94680.13;;;-144.48;72.86
4123;BME280;2075;51.062;6.920;2023-03-05T13:51:41;94680.13;;;-144.48;73.23
4123;BME280;2075;51.062;6.920;2023-03-05T13:54:28;94814.22;;;-144.48;74.55
4123;BME280;2075;51.062;6.920;2023-03-05T13:57:32;94700.44;;;-144.48;75.44
4123;BME280;2075;51.062;6.920;2023-03-05T14:00:26;94684.19;;;-144.48;76.12
4123;BME280;2075;51.062;6.920;2023-03-05T14:03:20;94692.31;;;-144.48;75.36
4123;BME280;2075;51.062;6.920;2023-03-05T14:06:09;94682.16;;;-144.48;73.41
4123;BME280;2075;51.062;6.920;2023-03-05T14:09:02;94680.13;;;-144.48;73.69
4123;BME280;2075;51.062;6.920;2023-03-05T14:11:54;94718.72;;;-144.48;71.30
4123;BME280;2075;51.062;6.920;2023-03-05T14:14:42;94672.00;;;-144.48;71.32
4123;BME280;2075;51.062;6.920;2023-03-05T14:17:35;94688.25;;;-144.48;71.22
4123;BME280;2075;51.062;6.920;2023-03-05T14:20:23;94684.19;;;-144.48;71.18
4123;BME280;2075;51.062;6.920;2023-03-05T14:23:29;94700.44;;;-144.48;72.19
4123;BME280;2075;51.062;6.920;2023-03-05T14:26:21;94682.16;;;-144.48;73.83
4123;BME280;2075;51.062;6.920;2023-03-05T14:29:13;94663.88;;;-144.48;77.34
4123;BME280;2075;51.062;6.920;2023-03-05T14:32:04;94617.13;;;-144.48;81.11
4123;BME280;2075;51.062;6.920;2023-03-05T14:34:54;94672.00;;;-144.48;83.29
4123;BME280;2075;51.062;6.920;2023-03-05T14:37:41;94696.38;;;-144.48;85.80
4123;BME280;2075;51.062;6.920;2023-03-05T14:40:30;94716.69;;;-144.48;85.80
4123;BME280;2075;51.062;6.920;2023-03-05T14:43:16;94732.94;;;-144.48;87.13